createdAt,value
2017-09-15T00:00:24.095Z,7.00
2017-09-15T00:01:24.815Z,6.00
2017-09-15T00:02:25.531Z,7.00
2017-09-15T00:03:26.246Z,7.00
2017-09-15T00:04:26.966Z,7.00
2017-09-15T00:05:27.685Z,7.00
2017-09-15T00:06:28.401Z,6.00
2017-09-15T00:07:29.120Z,8.00
2017-09-15T00:08:29.839Z,8.00
2017-09-15T00:09:30.556Z,6.00
2017-09-15T00:10:31.274Z,6.00
2017-09-15T00:11:31.993Z,8.00
2017-09-15T00:12:32.711Z,7.00
2017-09-15T00:13:33.426Z,7.00
2017-09-15T00:14:34.146Z,6.00
2017-09-15T00:15:34.865Z,6.00
2017-09-15T00:16:35.593Z,7.00
2017-09-15T00:17:36.299Z,8.00
2017-09-15T00:18:37.019Z,7.00
2017-09-15T00:19:37.736Z,7.00
2017-09-15T00:20:38.475Z,7.00
2017-09-15T00:21:39.196Z,8.00
2017-09-15T00:22:39.932Z,8.00
2017-09-15T00:23:40.647Z,7.00
2017-09-15T00:24:41.365Z,8.00
2017-09-15T00:25:42.105Z,6.00
2017-09-15T00:26:42.822Z,8.00
2017-09-15T00:27:43.541Z,9.00
2017-09-15T00:28:44.260Z,11.00
2017-09-15T00:29:44.994Z,9.00
2017-09-15T00:30:45.733Z,8.00
2017-09-15T00:31:46.452Z,8.00
2017-09-15T00:32:47.189Z,7.00
2017-09-15T00:33:47.912Z,9.00
2017-09-15T00:34:48.648Z,7.00
2017-09-15T00:35:49.365Z,8.00
2017-09-15T00:36:50.082Z,8.00
2017-09-15T00:37:50.802Z,8.00
2017-09-15T00:38:51.521Z,9.00
2017-09-15T00:39:52.241Z,12.00
2017-09-15T00:40:52.958Z,9.00
2017-09-15T00:41:53.677Z,9.00
2017-09-15T00:42:54.394Z,9.00
2017-09-15T00:43:55.114Z,9.00
2017-09-15T00:44:55.830Z,9.00
2017-09-15T00:45:56.548Z,7.00
2017-09-15T00:46:57.265Z,12.00
2017-09-15T00:47:57.981Z,7.00
2017-09-15T00:48:58.702Z,9.00
2017-09-15T00:49:59.444Z,8.00
2017-09-15T00:51:00.159Z,9.00
2017-09-15T00:52:00.878Z,11.00
2017-09-15T00:53:01.593Z,9.00
2017-09-15T00:54:02.312Z,8.00
2017-09-15T00:55:03.049Z,9.00
2017-09-15T00:56:03.768Z,7.00
2017-09-15T00:57:04.483Z,8.00
2017-09-15T00:58:05.202Z,10.00
2017-09-15T00:59:05.921Z,9.00
2017-09-15T01:00:06.658Z,8.00
2017-09-15T01:01:07.375Z,7.00
2017-09-15T01:02:08.095Z,8.00
2017-09-15T01:03:08.812Z,7.00
2017-09-15T01:04:09.527Z,6.00
2017-09-15T01:05:10.248Z,8.00
2017-09-15T01:06:10.964Z,9.00
2017-09-15T01:07:11.684Z,7.00
2017-09-15T01:08:12.401Z,8.00
2017-09-15T01:09:13.119Z,9.00
2017-09-15T01:10:13.836Z,9.00
2017-09-15T01:11:14.557Z,10.00
2017-09-15T01:12:15.273Z,10.00
2017-09-15T01:13:15.991Z,8.00
2017-09-15T01:14:16.708Z,8.00
2017-09-15T01:15:17.427Z,10.00
2017-09-15T01:16:18.145Z,10.00
2017-09-15T01:17:18.863Z,9.00
2017-09-15T01:18:19.599Z,9.00
2017-09-15T01:19:20.318Z,10.00
2017-09-15T01:20:21.036Z,9.00
2017-09-15T01:21:21.754Z,10.00
2017-09-15T01:22:22.473Z,10.00
2017-09-15T01:23:23.192Z,9.00
2017-09-15T01:24:23.913Z,10.00
2017-09-15T01:25:24.630Z,9.00
2017-09-15T01:26:25.371Z,8.00
2017-09-15T01:27:26.106Z,9.00
2017-09-15T01:28:26.824Z,9.00
2017-09-15T01:29:27.564Z,9.00
2017-09-15T01:30:28.282Z,12.00
2017-09-15T01:31:29.001Z,10.00
2017-09-15T01:32:29.719Z,15.00
2017-09-15T01:33:30.438Z,11.00
2017-09-15T01:34:31.158Z,9.00
2017-09-15T01:35:31.881Z,10.00
2017-09-15T01:36:32.617Z,10.00
2017-09-15T01:37:33.335Z,9.00
2017-09-15T01:38:34.056Z,10.00
2017-09-15T01:39:34.794Z,8.00
2017-09-15T01:40:35.510Z,9.00
2017-09-15T01:41:36.248Z,11.00
2017-09-15T01:42:36.966Z,11.00
2017-09-15T01:43:37.685Z,10.00
2017-09-15T01:44:38.404Z,9.00
2017-09-15T01:45:39.127Z,9.00
2017-09-15T01:46:39.841Z,11.00
2017-09-15T01:47:40.559Z,8.00
2017-09-15T01:48:41.276Z,9.00
2017-09-15T01:49:41.995Z,9.00
2017-09-15T01:50:42.713Z,14.00
2017-09-15T01:51:43.453Z,11.00
2017-09-15T01:52:44.190Z,10.00
2017-09-15T01:53:44.909Z,10.00
2017-09-15T01:54:45.646Z,11.00
2017-09-15T01:55:46.367Z,8.00
2017-09-15T01:56:47.085Z,11.00
2017-09-15T01:57:47.802Z,11.00
2017-09-15T01:58:48.520Z,12.00
2017-09-15T01:59:49.237Z,9.00
2017-09-15T02:00:49.958Z,11.00
2017-09-15T02:01:50.677Z,11.00
2017-09-15T02:02:51.396Z,15.00
2017-09-15T02:03:52.117Z,11.00
2017-09-15T02:04:52.855Z,13.00
2017-09-15T02:05:53.572Z,10.00
2017-09-15T02:06:54.294Z,11.00
2017-09-15T02:07:55.012Z,10.00
2017-09-15T02:08:55.752Z,8.00
2017-09-15T02:09:56.468Z,9.00
2017-09-15T02:10:57.204Z,11.00
2017-09-15T02:11:57.924Z,12.00
2017-09-15T02:12:58.642Z,9.00
2017-09-15T02:13:59.358Z,10.00
2017-09-15T02:15:00.083Z,9.00
2017-09-15T02:16:00.801Z,10.00
2017-09-15T02:17:01.517Z,11.00
2017-09-15T02:18:02.236Z,11.00
2017-09-15T02:19:02.976Z,10.00
2017-09-15T02:20:03.693Z,10.00
2017-09-15T02:21:04.434Z,11.00
2017-09-15T02:22:05.154Z,10.00
2017-09-15T02:23:05.891Z,12.00
2017-09-15T02:24:06.614Z,12.00
2017-09-15T02:25:07.332Z,10.00
2017-09-15T02:26:08.050Z,10.00
2017-09-15T02:27:08.773Z,10.00
2017-09-15T02:28:09.490Z,11.00
2017-09-15T02:29:10.209Z,11.00
2017-09-15T02:30:10.928Z,12.00
2017-09-15T02:31:11.644Z,9.00
2017-09-15T02:32:12.362Z,9.00
2017-09-15T02:33:13.100Z,11.00
2017-09-15T02:34:13.817Z,11.00
2017-09-15T02:35:14.555Z,13.00
2017-09-15T02:36:15.273Z,11.00
2017-09-15T02:37:15.991Z,12.00
2017-09-15T02:38:16.712Z,11.00
2017-09-15T02:39:17.427Z,12.00
2017-09-15T02:40:18.146Z,12.00
2017-09-15T02:41:18.863Z,10.00
2017-09-15T02:42:19.581Z,13.00
2017-09-15T02:43:20.300Z,13.00
2017-09-15T02:44:21.020Z,12.00
2017-09-15T02:45:21.764Z,13.00
2017-09-15T02:46:22.477Z,13.00
2017-09-15T02:47:23.196Z,13.00
2017-09-15T02:48:23.936Z,14.00
2017-09-15T02:49:24.656Z,14.00
2017-09-15T02:50:25.374Z,14.00
2017-09-15T02:51:26.094Z,14.00
2017-09-15T02:52:26.815Z,16.00
2017-09-15T02:53:27.548Z,11.00
2017-09-15T02:54:28.268Z,12.00
2017-09-15T02:55:28.988Z,16.00
2017-09-15T02:56:29.711Z,13.00
2017-09-15T02:57:30.426Z,15.00
2017-09-15T02:58:31.144Z,13.00
2017-09-15T02:59:31.884Z,19.00
2017-09-15T03:00:32.603Z,16.00
2017-09-15T03:01:33.346Z,14.00
2017-09-15T03:02:34.063Z,14.00
2017-09-15T03:03:34.784Z,15.00
2017-09-15T03:04:35.500Z,14.00
2017-09-15T03:05:36.222Z,15.00
2017-09-15T03:06:36.941Z,15.00
2017-09-15T03:07:37.660Z,14.00
2017-09-15T03:08:38.379Z,18.00
2017-09-15T03:09:39.099Z,19.00
2017-09-15T03:10:39.818Z,19.00
2017-09-15T03:11:40.554Z,16.00
2017-09-15T03:12:41.273Z,16.00
2017-09-15T03:13:41.994Z,20.00
2017-09-15T03:14:42.714Z,19.00
2017-09-15T03:15:43.451Z,19.00
2017-09-15T03:16:44.172Z,21.00
2017-09-15T03:17:44.888Z,17.00
2017-09-15T03:18:45.608Z,18.00
2017-09-15T03:19:46.326Z,18.00
2017-09-15T03:20:47.066Z,18.00
2017-09-15T03:21:47.785Z,19.00
2017-09-15T03:22:48.524Z,19.00
2017-09-15T03:23:49.245Z,16.00
2017-09-15T03:24:49.983Z,19.00
2017-09-15T03:25:50.726Z,17.00
2017-09-15T03:26:51.443Z,16.00
2017-09-15T03:27:52.160Z,16.00
2017-09-15T03:28:52.879Z,17.00
2017-09-15T03:29:53.596Z,21.00
2017-09-15T03:30:54.316Z,19.00
2017-09-15T03:31:55.034Z,19.00
2017-09-15T03:32:55.752Z,20.00
2017-09-15T03:33:56.473Z,22.00
2017-09-15T03:34:57.191Z,23.00
2017-09-15T03:35:57.911Z,21.00
2017-09-15T03:36:58.627Z,22.00
2017-09-15T03:37:59.343Z,22.00
2017-09-15T03:39:00.065Z,21.00
2017-09-15T03:40:00.784Z,22.00
2017-09-15T03:41:01.500Z,22.00
2017-09-15T03:42:02.236Z,22.00
2017-09-15T03:43:02.959Z,19.00
2017-09-15T03:44:03.696Z,18.00
2017-09-15T03:45:04.415Z,22.00
2017-09-15T03:46:05.134Z,24.00
2017-09-15T03:47:05.853Z,20.00
2017-09-15T03:48:06.569Z,21.00
2017-09-15T03:49:07.306Z,21.00
2017-09-15T03:50:08.025Z,15.00
2017-09-15T03:51:08.765Z,23.00
2017-09-15T03:52:09.487Z,21.00
2017-09-15T03:53:10.207Z,21.00
2017-09-15T03:54:10.926Z,18.00
2017-09-15T03:55:11.643Z,22.00
2017-09-15T03:56:12.381Z,24.00
2017-09-15T03:57:13.102Z,21.00
2017-09-15T03:58:13.840Z,24.00
2017-09-15T03:59:14.561Z,21.00
2017-09-15T04:00:15.280Z,22.00
2017-09-15T04:01:15.998Z,23.00
2017-09-15T04:02:16.736Z,22.00
2017-09-15T04:03:17.454Z,22.00
2017-09-15T04:04:18.172Z,20.00
2017-09-15T04:05:18.889Z,20.00
2017-09-15T04:06:19.608Z,22.00
2017-09-15T04:07:20.346Z,23.00
2017-09-15T04:08:21.063Z,22.00
2017-09-15T04:09:21.781Z,24.00
2017-09-15T04:10:22.500Z,22.00
2017-09-15T04:11:23.221Z,23.00
2017-09-15T04:12:23.940Z,23.00
2017-09-15T04:13:24.661Z,24.00
2017-09-15T04:14:25.377Z,27.00
2017-09-15T04:15:26.097Z,24.00
2017-09-15T04:16:26.816Z,26.00
2017-09-15T04:17:27.554Z,22.00
2017-09-15T04:18:28.294Z,26.00
2017-09-15T04:19:29.032Z,21.00
2017-09-15T04:20:29.752Z,24.00
2017-09-15T04:21:30.471Z,25.00
2017-09-15T04:22:31.208Z,26.00
2017-09-15T04:23:31.927Z,27.00
2017-09-15T04:24:32.646Z,23.00
2017-09-15T04:25:33.361Z,24.00
2017-09-15T04:26:34.079Z,24.00
2017-09-15T04:27:34.818Z,23.00
2017-09-15T04:28:35.536Z,22.00
2017-09-15T04:29:36.258Z,18.00
2017-09-15T04:30:36.973Z,23.00
2017-09-15T04:31:37.699Z,18.00
2017-09-15T04:32:38.413Z,20.00
2017-09-15T04:33:39.131Z,24.00
2017-09-15T04:34:39.852Z,21.00
2017-09-15T04:35:40.571Z,22.00
2017-09-15T04:36:41.289Z,22.00
2017-09-15T04:37:42.029Z,25.00
2017-09-15T04:38:42.749Z,20.00
2017-09-15T04:39:43.465Z,20.00
2017-09-15T04:40:44.184Z,19.00
2017-09-15T04:41:44.903Z,21.00
2017-09-15T04:42:45.642Z,24.00
2017-09-15T04:43:46.384Z,22.00
2017-09-15T04:44:47.102Z,21.00
2017-09-15T04:45:47.823Z,19.00
2017-09-15T04:46:48.542Z,19.00
2017-09-15T04:47:49.259Z,22.00
2017-09-15T04:48:49.999Z,16.00
2017-09-15T04:49:50.718Z,22.00
2017-09-15T04:50:51.437Z,23.00
2017-09-15T04:51:52.159Z,20.00
2017-09-15T04:52:52.879Z,21.00
2017-09-15T04:53:53.595Z,20.00
2017-09-15T04:54:54.316Z,24.00
2017-09-15T04:55:55.037Z,16.00
2017-09-15T04:56:55.773Z,22.00
2017-09-15T04:57:56.492Z,20.00
2017-09-15T04:58:57.212Z,24.00
2017-09-15T04:59:57.951Z,20.00
2017-09-15T05:00:58.671Z,22.00
2017-09-15T05:01:59.392Z,23.00
2017-09-15T05:03:00.137Z,24.00
2017-09-15T05:04:00.859Z,20.00
2017-09-15T05:05:01.579Z,21.00
2017-09-15T05:06:02.303Z,25.00
2017-09-15T05:07:03.022Z,22.00
2017-09-15T05:08:03.766Z,24.00
2017-09-15T05:09:04.509Z,23.00
2017-09-15T05:10:05.228Z,24.00
2017-09-15T05:11:05.951Z,24.00
2017-09-15T05:12:06.672Z,22.00
2017-09-15T05:13:07.395Z,21.00
2017-09-15T05:14:08.116Z,24.00
2017-09-15T05:15:08.835Z,25.00
2017-09-15T05:16:09.576Z,21.00
2017-09-15T05:17:10.297Z,20.00
2017-09-15T05:18:11.020Z,18.00
2017-09-15T05:19:11.758Z,19.00
2017-09-15T05:20:12.481Z,20.00
2017-09-15T05:21:13.201Z,21.00
2017-09-15T05:22:13.927Z,20.00
2017-09-15T05:23:14.646Z,22.00
2017-09-15T05:24:15.367Z,23.00
2017-09-15T05:25:16.088Z,18.00
2017-09-15T05:26:16.809Z,23.00
2017-09-15T05:27:17.531Z,22.00
2017-09-15T05:28:18.271Z,18.00
2017-09-15T05:29:18.994Z,15.00
2017-09-15T05:30:19.714Z,17.00
2017-09-15T05:31:20.437Z,19.00
2017-09-15T05:32:21.158Z,16.00
2017-09-15T05:33:21.898Z,19.00
2017-09-15T05:34:22.622Z,18.00
2017-09-15T05:35:23.346Z,21.00
2017-09-15T05:36:24.069Z,17.00
2017-09-15T05:37:24.792Z,17.00
2017-09-15T05:38:25.514Z,17.00
2017-09-15T05:39:26.261Z,17.00
2017-09-15T05:40:26.980Z,20.00
2017-09-15T05:41:27.704Z,19.00
2017-09-15T05:42:28.428Z,16.00
2017-09-15T05:43:29.149Z,16.00
2017-09-15T05:44:29.875Z,16.00
2017-09-15T05:45:30.600Z,18.00
2017-09-15T05:46:31.345Z,19.00
2017-09-15T05:47:32.068Z,16.00
2017-09-15T05:48:32.793Z,13.00
2017-09-15T05:49:33.517Z,16.00
2017-09-15T05:50:34.238Z,17.00
2017-09-15T05:51:34.981Z,17.00
2017-09-15T05:52:35.705Z,21.00
2017-09-15T05:53:36.429Z,19.00
2017-09-15T05:54:37.154Z,19.00
2017-09-15T05:55:37.878Z,10.00
2017-09-15T05:56:38.602Z,20.00
2017-09-15T05:57:39.327Z,22.00
2017-09-15T05:58:40.068Z,20.00
2017-09-15T05:59:40.813Z,19.00
2017-09-15T06:00:41.538Z,20.00
2017-09-15T06:01:42.262Z,21.00
2017-09-15T06:02:42.986Z,21.00
2017-09-15T06:03:43.711Z,22.00
2017-09-15T06:04:44.432Z,20.00
2017-09-15T06:05:45.157Z,19.00
2017-09-15T06:06:45.881Z,23.00
2017-09-15T06:07:46.603Z,22.00
2017-09-15T06:08:47.330Z,24.00
2017-09-15T06:09:48.053Z,21.00
2017-09-15T06:10:48.797Z,21.00
2017-09-15T06:11:49.520Z,20.00
2017-09-15T06:12:50.241Z,22.00
2017-09-15T06:13:50.967Z,15.00
2017-09-15T06:14:51.712Z,24.00
2017-09-15T06:15:52.433Z,17.00
2017-09-15T06:16:53.160Z,23.00
2017-09-15T06:17:53.884Z,26.00
2017-09-15T06:18:54.610Z,24.00
2017-09-15T06:19:55.355Z,20.00
2017-09-15T06:20:56.082Z,24.00
2017-09-15T06:21:56.827Z,22.00
2017-09-15T06:22:57.553Z,19.00
2017-09-15T06:23:58.278Z,20.00
2017-09-15T06:24:59.002Z,19.00
2017-09-15T06:25:59.726Z,22.00
2017-09-15T06:27:00.453Z,22.00
2017-09-15T06:28:01.179Z,22.00
2017-09-15T06:29:01.906Z,22.00
2017-09-15T06:30:02.633Z,25.00
2017-09-15T06:31:03.381Z,24.00
2017-09-15T06:32:04.122Z,18.00
2017-09-15T06:33:04.867Z,24.00
2017-09-15T06:34:05.591Z,23.00
2017-09-15T06:35:06.319Z,25.00
2017-09-15T06:36:07.047Z,21.00
2017-09-15T06:37:07.791Z,27.00
2017-09-15T06:38:08.518Z,22.00
2017-09-15T06:39:09.264Z,22.00
2017-09-15T06:40:09.988Z,25.00
2017-09-15T06:41:10.713Z,26.00
2017-09-15T06:42:11.436Z,28.00
2017-09-15T06:43:12.160Z,28.00
2017-09-15T06:44:12.883Z,26.00
2017-09-15T06:45:13.609Z,30.00
2017-09-15T06:46:14.332Z,24.00
2017-09-15T06:47:15.078Z,25.00
2017-09-15T06:48:15.803Z,29.00
2017-09-15T06:49:16.529Z,31.00
2017-09-15T06:50:17.255Z,29.00
2017-09-15T06:51:17.984Z,28.00
2017-09-15T06:52:18.719Z,29.00
2017-09-15T06:53:19.445Z,27.00
2017-09-15T06:54:20.168Z,24.00
2017-09-15T06:55:20.894Z,30.00
2017-09-15T06:56:21.623Z,26.00
2017-09-15T06:57:22.348Z,27.00
2017-09-15T06:58:23.069Z,26.00
2017-09-15T06:59:23.797Z,26.00
2017-09-15T07:00:24.527Z,27.00
2017-09-15T07:01:25.269Z,28.00
2017-09-15T07:02:26.093Z,28.00
2017-09-15T07:03:26.818Z,33.00
2017-09-15T07:04:27.545Z,25.00
2017-09-15T07:05:28.285Z,33.00
2017-09-15T07:06:29.001Z,29.00
2017-09-15T07:07:29.724Z,21.00
2017-09-15T07:08:30.467Z,23.00
2017-09-15T07:09:31.196Z,27.00
2017-09-15T07:10:31.943Z,35.00
2017-09-15T07:11:32.671Z,36.00
2017-09-15T07:12:33.398Z,32.00
2017-09-15T07:13:34.145Z,49.00
2017-09-15T07:14:34.890Z,36.00
2017-09-15T07:15:35.617Z,29.00
2017-09-15T07:16:36.353Z,36.00
2017-09-15T07:17:37.070Z,29.00
2017-09-15T07:18:37.793Z,31.00
2017-09-15T07:19:38.523Z,34.00
2017-09-15T07:20:39.252Z,33.00
2017-09-15T07:21:39.974Z,28.00
2017-09-15T07:22:40.705Z,34.00
2017-09-15T07:23:41.431Z,33.00
2017-09-15T07:24:42.160Z,33.00
2017-09-15T07:25:42.905Z,29.00
2017-09-15T07:26:43.632Z,26.00
2017-09-15T07:27:44.360Z,31.00
2017-09-15T07:28:45.095Z,30.00
2017-09-15T07:29:45.813Z,29.00
2017-09-15T07:30:46.540Z,31.00
2017-09-15T07:31:47.268Z,28.00
2017-09-15T07:32:48.000Z,29.00
2017-09-15T07:33:48.742Z,32.00
2017-09-15T07:34:49.466Z,26.00
2017-09-15T07:35:50.216Z,25.00
2017-09-15T07:36:50.942Z,26.00
2017-09-15T07:37:51.689Z,27.00
2017-09-15T07:38:52.437Z,24.00
2017-09-15T07:39:53.161Z,33.00
2017-09-15T07:40:53.891Z,34.00
2017-09-15T07:41:54.618Z,29.00
2017-09-15T07:42:55.343Z,29.00
2017-09-15T07:43:56.076Z,32.00
2017-09-15T07:44:56.803Z,28.00
2017-09-15T07:45:57.528Z,31.00
2017-09-15T07:46:58.257Z,33.00
2017-09-15T07:47:58.985Z,26.00
2017-09-15T07:48:59.735Z,29.00
2017-09-15T07:50:00.463Z,32.00
2017-09-15T07:51:01.189Z,26.00
2017-09-15T07:52:01.918Z,26.00
2017-09-15T07:53:02.666Z,26.00
2017-09-15T07:54:03.394Z,29.00
2017-09-15T07:55:04.121Z,24.00
2017-09-15T07:56:04.849Z,32.00
2017-09-15T07:57:05.596Z,25.00
2017-09-15T07:58:06.322Z,27.00
2017-09-15T07:59:07.049Z,25.00
2017-09-15T08:00:07.776Z,31.00
2017-09-15T08:01:08.504Z,26.00
2017-09-15T08:02:09.230Z,29.00
2017-09-15T08:03:09.959Z,30.00
2017-09-15T08:04:10.695Z,29.00
2017-09-15T08:05:11.412Z,28.00
2017-09-15T08:06:12.158Z,25.00
2017-09-15T08:07:12.905Z,30.00
2017-09-15T08:08:13.633Z,28.00
2017-09-15T08:09:14.362Z,28.00
2017-09-15T08:10:15.092Z,25.00
2017-09-15T08:11:15.822Z,29.00
2017-09-15T08:12:16.549Z,25.00
2017-09-15T08:13:17.311Z,29.00
2017-09-15T08:14:18.010Z,20.00
2017-09-15T08:15:18.742Z,28.00
2017-09-15T08:16:19.486Z,25.00
2017-09-15T08:17:20.216Z,26.00
2017-09-15T08:18:20.948Z,26.00
2017-09-15T08:19:21.680Z,22.00
2017-09-15T08:20:22.410Z,23.00
2017-09-15T08:21:23.156Z,22.00
2017-09-15T08:22:23.886Z,23.00
2017-09-15T08:23:24.637Z,20.00
2017-09-15T08:24:25.365Z,23.00
2017-09-15T08:25:26.094Z,21.00
2017-09-15T08:26:26.826Z,25.00
2017-09-15T08:27:27.574Z,24.00
2017-09-15T08:28:28.326Z,23.00
2017-09-15T08:29:29.031Z,21.00
2017-09-15T08:30:29.781Z,23.00
2017-09-15T08:31:30.508Z,22.00
2017-09-15T08:32:31.233Z,21.00
2017-09-15T08:33:31.963Z,21.00
2017-09-15T08:34:32.687Z,24.00
2017-09-15T08:35:33.416Z,21.00
2017-09-15T08:36:34.145Z,22.00
2017-09-15T08:37:34.871Z,22.00
2017-09-15T08:38:35.596Z,19.00
2017-09-15T08:39:36.325Z,21.00
2017-09-15T08:40:37.052Z,19.00
2017-09-15T08:41:37.777Z,22.00
2017-09-15T08:42:38.504Z,16.00
2017-09-15T08:43:39.256Z,20.00
2017-09-15T08:44:39.979Z,22.00
2017-09-15T08:45:40.708Z,20.00
2017-09-15T08:46:41.437Z,20.00
2017-09-15T08:47:42.163Z,19.00
2017-09-15T08:48:42.891Z,20.00
2017-09-15T08:49:43.619Z,20.00
2017-09-15T08:50:44.367Z,22.00
2017-09-15T08:51:45.103Z,17.00
2017-09-15T08:52:45.824Z,20.00
2017-09-15T08:53:46.550Z,16.00
2017-09-15T08:54:47.275Z,19.00
2017-09-15T08:55:48.005Z,21.00
2017-09-15T08:56:48.734Z,20.00
2017-09-15T08:57:49.481Z,22.00
2017-09-15T08:58:50.207Z,22.00
2017-09-15T08:59:50.954Z,20.00
2017-09-15T09:00:51.701Z,23.00
2017-09-15T09:01:52.427Z,20.00
2017-09-15T09:02:53.157Z,22.00
2017-09-15T09:03:53.885Z,21.00
2017-09-15T09:04:54.634Z,23.00
2017-09-15T09:05:55.364Z,20.00
2017-09-15T09:06:56.095Z,21.00
2017-09-15T09:07:56.847Z,22.00
2017-09-15T09:08:57.579Z,24.00
2017-09-15T09:09:58.307Z,20.00
2017-09-15T09:10:59.038Z,21.00
2017-09-15T09:11:59.768Z,19.00
2017-09-15T09:13:00.500Z,19.00
2017-09-15T09:14:01.231Z,20.00
2017-09-15T09:15:01.959Z,22.00
2017-09-15T09:16:02.690Z,21.00
2017-09-15T09:17:03.421Z,24.00
2017-09-15T09:18:04.152Z,23.00
2017-09-15T09:19:04.883Z,23.00
2017-09-15T09:20:05.612Z,18.00
2017-09-15T09:21:06.345Z,26.00
2017-09-15T09:22:07.076Z,24.00
2017-09-15T09:23:07.803Z,27.00
2017-09-15T09:24:08.537Z,26.00
2017-09-15T09:25:09.269Z,22.00
2017-09-15T09:26:10.002Z,25.00
2017-09-15T09:27:10.732Z,24.00
2017-09-15T09:28:11.481Z,25.00
2017-09-15T09:29:12.211Z,24.00
2017-09-15T09:30:12.943Z,23.00
2017-09-15T09:31:13.674Z,24.00
2017-09-15T09:32:14.430Z,24.00
2017-09-15T09:33:15.160Z,24.00
2017-09-15T09:34:15.889Z,27.00
2017-09-15T09:35:16.621Z,25.00
2017-09-15T09:36:17.354Z,24.00
2017-09-15T09:37:18.086Z,25.00
2017-09-15T09:38:18.840Z,22.00
2017-09-15T09:39:19.570Z,21.00
2017-09-15T09:40:20.303Z,20.00
2017-09-15T09:41:21.056Z,18.00
2017-09-15T09:42:21.792Z,19.00
2017-09-15T09:43:22.535Z,16.00
2017-09-15T09:44:23.264Z,17.00
2017-09-15T09:45:23.998Z,24.00
2017-09-15T09:46:24.732Z,19.00
2017-09-15T09:47:25.469Z,18.00
2017-09-15T09:48:26.204Z,17.00
2017-09-15T09:49:26.938Z,14.00
2017-09-15T09:50:27.693Z,15.00
2017-09-15T09:51:28.428Z,13.00
2017-09-15T09:52:29.162Z,14.00
2017-09-15T09:53:29.917Z,20.00
2017-09-15T09:54:30.651Z,16.00
2017-09-15T09:55:31.384Z,16.00
2017-09-15T09:56:32.138Z,16.00
2017-09-15T09:57:32.872Z,15.00
2017-09-15T09:58:33.605Z,16.00
2017-09-15T09:59:34.340Z,16.00
2017-09-15T10:00:35.078Z,17.00
2017-09-15T10:01:35.815Z,14.00
2017-09-15T10:02:36.577Z,14.00
2017-09-15T10:03:37.310Z,14.00
2017-09-15T10:04:38.069Z,13.00
2017-09-15T10:05:38.806Z,12.00
2017-09-15T10:06:39.563Z,18.00
2017-09-15T10:07:40.305Z,13.00
2017-09-15T10:08:41.045Z,14.00
2017-09-15T10:09:41.782Z,13.00
2017-09-15T10:10:42.520Z,10.00
2017-09-15T10:11:43.261Z,13.00
2017-09-15T10:12:43.996Z,13.00
2017-09-15T10:13:44.732Z,16.00
2017-09-15T10:14:45.471Z,16.00
2017-09-15T10:15:46.229Z,14.00
2017-09-15T10:16:46.966Z,13.00
2017-09-15T10:17:47.725Z,14.00
2017-09-15T10:18:48.486Z,14.00
2017-09-15T10:19:49.224Z,14.00
2017-09-15T10:20:49.963Z,15.00
2017-09-15T10:21:50.704Z,14.00
2017-09-15T10:22:51.444Z,13.00
2017-09-15T10:23:52.187Z,14.00
2017-09-15T10:24:52.932Z,14.00
2017-09-15T10:25:53.679Z,13.00
2017-09-15T10:26:54.418Z,14.00
2017-09-15T10:27:55.162Z,13.00
2017-09-15T10:28:55.911Z,13.00
2017-09-15T10:29:56.649Z,15.00
2017-09-15T10:30:57.395Z,12.00
2017-09-15T10:31:58.142Z,13.00
2017-09-15T10:32:58.885Z,12.00
2017-09-15T10:33:59.634Z,11.00
2017-09-15T10:35:00.377Z,12.00
2017-09-15T10:36:01.120Z,12.00
2017-09-15T10:37:01.860Z,11.00
2017-09-15T10:38:02.603Z,13.00
2017-09-15T10:39:03.344Z,14.00
2017-09-15T10:40:04.086Z,11.00
2017-09-15T10:41:04.849Z,10.00
2017-09-15T10:42:05.585Z,12.00
2017-09-15T10:43:06.323Z,12.00
2017-09-15T10:44:07.081Z,12.00
2017-09-15T10:45:07.819Z,12.00
2017-09-15T10:46:08.551Z,11.00
2017-09-15T10:47:09.288Z,13.00
2017-09-15T10:48:10.025Z,11.00
2017-09-15T10:49:10.780Z,14.00
2017-09-15T10:50:11.521Z,12.00
2017-09-15T10:51:12.261Z,14.00
2017-09-15T10:52:12.998Z,14.00
2017-09-15T10:53:13.751Z,15.00
2017-09-15T10:54:14.486Z,13.00
2017-09-15T10:55:15.223Z,14.00
2017-09-15T10:56:15.979Z,14.00
2017-09-15T10:57:16.732Z,14.00
2017-09-15T10:58:17.466Z,13.00
2017-09-15T10:59:18.198Z,12.00
2017-09-15T11:00:18.933Z,14.00
2017-09-15T11:01:19.665Z,11.00
2017-09-15T11:02:20.398Z,13.00
2017-09-15T11:03:21.130Z,12.00
2017-09-15T11:04:21.863Z,14.00
2017-09-15T11:05:22.596Z,16.00
2017-09-15T11:06:23.332Z,11.00
2017-09-15T11:07:24.066Z,12.00
2017-09-15T11:08:24.795Z,11.00
2017-09-15T11:09:25.529Z,13.00
2017-09-15T11:10:26.280Z,13.00
2017-09-15T11:11:27.014Z,11.00
2017-09-15T11:12:27.746Z,13.00
2017-09-15T11:13:28.477Z,12.00
2017-09-15T11:14:29.209Z,13.00
2017-09-15T11:15:29.940Z,12.00
2017-09-15T11:16:30.689Z,13.00
2017-09-15T11:17:31.422Z,12.00
2017-09-15T11:18:32.153Z,15.00
2017-09-15T11:19:32.882Z,22.00
2017-09-15T11:20:33.610Z,13.00
2017-09-15T11:21:34.340Z,15.00
2017-09-15T11:22:35.101Z,14.00
2017-09-15T11:23:35.802Z,13.00
2017-09-15T11:24:36.532Z,17.00
2017-09-15T11:25:37.262Z,13.00
2017-09-15T11:26:37.990Z,12.00
2017-09-15T11:27:38.721Z,13.00
2017-09-15T11:28:39.451Z,16.00
2017-09-15T11:29:40.180Z,14.00
2017-09-15T11:30:40.915Z,14.00
2017-09-15T11:31:41.643Z,11.00
2017-09-15T11:32:42.375Z,13.00
2017-09-15T11:33:43.106Z,16.00
2017-09-15T11:34:43.837Z,13.00
2017-09-15T11:35:44.566Z,12.00
2017-09-15T11:36:45.300Z,13.00
2017-09-15T11:37:46.031Z,14.00
2017-09-15T11:38:46.765Z,14.00
2017-09-15T11:39:47.498Z,13.00
2017-09-15T11:40:48.230Z,11.00
2017-09-15T11:41:48.991Z,12.00
2017-09-15T11:42:49.720Z,13.00
2017-09-15T11:43:50.457Z,11.00
2017-09-15T11:44:51.192Z,11.00
2017-09-15T11:45:51.932Z,12.00
2017-09-15T11:46:52.669Z,13.00
2017-09-15T11:47:53.406Z,13.00
2017-09-15T11:48:54.145Z,13.00
2017-09-15T11:49:54.885Z,11.00
2017-09-15T11:50:55.623Z,14.00
2017-09-15T11:51:56.357Z,14.00
2017-09-15T11:52:57.115Z,11.00
2017-09-15T11:53:57.852Z,12.00
2017-09-15T11:54:58.588Z,10.00
2017-09-15T11:55:59.321Z,10.00
2017-09-15T11:57:00.054Z,9.00
2017-09-15T11:58:00.787Z,10.00
2017-09-15T11:59:01.520Z,11.00
2017-09-15T12:00:02.252Z,10.00
2017-09-15T12:01:03.003Z,9.00
2017-09-15T12:02:03.739Z,10.00
2017-09-15T12:03:04.472Z,9.00
2017-09-15T12:04:05.205Z,9.00
2017-09-15T12:05:05.940Z,12.00
2017-09-15T12:06:06.690Z,9.00
2017-09-15T12:07:07.427Z,7.00
2017-09-15T12:08:08.171Z,9.00
2017-09-15T12:09:08.903Z,7.00
2017-09-15T12:10:09.636Z,8.00
2017-09-15T12:11:10.361Z,7.00
2017-09-15T12:12:11.090Z,7.00
2017-09-15T12:13:11.819Z,7.00
2017-09-15T12:14:12.545Z,5.00
2017-09-15T12:15:13.276Z,7.00
2017-09-15T12:16:14.009Z,7.00
2017-09-15T12:17:14.737Z,7.00
2017-09-15T12:18:15.469Z,7.00
2017-09-15T12:19:16.202Z,10.00
2017-09-15T12:20:16.933Z,8.00
2017-09-15T12:21:17.664Z,9.00
2017-09-15T12:22:18.400Z,10.00
2017-09-15T12:23:19.133Z,8.00
2017-09-15T12:24:19.862Z,9.00
2017-09-15T12:25:20.602Z,8.00
2017-09-15T12:26:21.350Z,7.00
2017-09-15T12:27:22.080Z,7.00
2017-09-15T12:28:22.811Z,7.00
2017-09-15T12:29:23.562Z,7.00
2017-09-15T12:30:24.293Z,7.00
2017-09-15T12:31:25.020Z,6.00
2017-09-15T12:32:25.770Z,5.00
2017-09-15T12:33:26.498Z,8.00
2017-09-15T12:34:27.250Z,7.00
2017-09-15T12:35:27.978Z,6.00
2017-09-15T12:36:28.704Z,6.00
2017-09-15T12:37:29.452Z,4.00
2017-09-15T12:38:30.180Z,4.00
2017-09-15T12:39:30.910Z,4.00
2017-09-15T12:40:31.636Z,4.00
2017-09-15T12:41:32.365Z,4.00
2017-09-15T12:42:33.094Z,5.00
2017-09-15T12:43:33.838Z,5.00
2017-09-15T12:44:34.568Z,5.00
2017-09-15T12:45:35.295Z,5.00
2017-09-15T12:46:36.048Z,4.00
2017-09-15T12:47:36.774Z,5.00
2017-09-15T12:48:37.501Z,5.00
2017-09-15T12:49:38.231Z,4.00
2017-09-15T12:50:38.960Z,3.00
2017-09-15T12:51:39.688Z,4.00
2017-09-15T12:52:40.420Z,3.00
2017-09-15T12:53:41.151Z,5.00
2017-09-15T12:54:41.891Z,4.00
2017-09-15T12:55:42.619Z,4.00
2017-09-15T12:56:43.352Z,5.00
2017-09-15T12:57:44.086Z,4.00
2017-09-15T12:58:44.819Z,4.00
2017-09-15T12:59:45.554Z,3.00
2017-09-15T13:00:46.311Z,4.00
2017-09-15T13:01:47.058Z,4.00
2017-09-15T13:02:47.811Z,4.00
2017-09-15T13:03:48.542Z,5.00
2017-09-15T13:04:49.282Z,3.00
2017-09-15T13:05:50.017Z,5.00
2017-09-15T13:06:50.753Z,5.00